Time;durP1;ratioP1;P1;durP2;ratioP2;P2;SDS_P1;SDS_P2;PMS_P1;PMS_P2;Temp;Humidity;BMP_temperature;BMP_pressure;BME280_temperature;BME280_humidity;BME280_pressure;Samples;Min_cycle;Max_cycle;Signal;HPM_P1;HPM_P2
2023/05/21 00:00:00;;;;;;;1999.90;999.90;;;15.00;99.90;;;;;;5147888;27;20060;-75
2023/05/21 00:02:28;;;;;;;1999.90;999.90;;;15.00;99.90;;;;;;5149194;27;20038;-75
2023/05/21 00:04:54;;;;;;;1999.90;999.90;;;14.90;99.90;;;;;;5146689;27;20059;-75
2023/05/21 00:07:20;;;;;;;1999.90;999.90;;;14.90;99.90;;;;;;5148228;27;20046;-76
2023/05/21 00:09:46;;;;;;;1999.90;999.90;;;14.90;99.90;;;;;;5144731;27;20053;-76
2023/05/21 00:12:11;;;;;;;1999.90;999.90;;;14.90;99.90;;;;;;5147821;27;20113;-75
2023/05/21 00:14:37;;;;;;;1999.90;999.90;;;14.90;99.90;;;;;;5122766;27;20468;-78
2023/05/21 00:17:03;;;;;;;1999.90;999.90;;;14.90;99.90;;;;;;5128628;27;20104;-76
2023/05/21 00:19:31;;;;;;;1999.90;999.90;;;14.90;99.90;;;;;;5149018;27;20067;-75
2023/05/21 00:21:57;;;;;;;1999.90;999.90;;;14.90;99.90;;;;;;5141662;27;20042;-75
2023/05/21 00:24:22;;;;;;;1999.90;999.90;;;14.90;99.90;;;;;;5139096;27;20088;-76
2023/05/21 00:26:48;;;;;;;1999.90;999.90;;;14.90;99.90;;;;;;5128457;27;20050;-76
2023/05/21 00:29:14;;;;;;;1999.90;999.90;;;14.90;99.90;;;;;;5147754;27;20418;-75
2023/05/21 00:31:39;;;;;;;1999.90;999.90;;;14.80;99.90;;;;;;5146036;27;20122;-77
2023/05/21 00:34:05;;;;;;;1999.90;999.90;;;14.80;99.90;;;;;;5145752;27;20046;-75
2023/05/21 00:36:33;;;;;;;1999.90;999.90;;;14.80;99.90;;;;;;5133345;27;20471;-75
2023/05/21 00:38:59;;;;;;;1999.90;999.90;;;14.80;99.90;;;;;;5119598;27;20042;-75
2023/05/21 00:41:24;;;;;;;1999.90;999.90;;;14.80;99.90;;;;;;5129745;27;20034;-75
2023/05/21 00:43:51;;;;;;;1999.90;999.90;;;14.80;99.90;;;;;;5144169;27;20448;-75
2023/05/21 00:46:19;;;;;;;1999.90;999.90;;;14.70;99.90;;;;;;5144784;27;20051;-75
2023/05/21 00:48:46;;;;;;;1999.90;999.90;;;14.70;99.90;;;;;;5145458;27;20118;-76
2023/05/21 00:51:17;;;;;;;1999.90;999.90;;;14.70;99.90;;;;;;5150252;27;20087;-75
2023/05/21 00:53:44;;;;;;;1999.90;999.90;;;14.70;99.90;;;;;;5151387;27;20129;-76
2023/05/21 00:56:10;;;;;;;1999.90;999.90;;;14.60;99.90;;;;;;5153708;27;20129;-77
2023/05/21 00:58:36;;;;;;;1999.90;999.90;;;14.60;99.90;;;;;;5131875;27;20129;-77
2023/05/21 01:01:02;;;;;;;1999.90;999.90;;;14.60;99.90;;;;;;5131879;27;20475;-75
2023/05/21 01:03:29;;;;;;;1999.90;999.90;;;14.60;99.90;;;;;;5152605;27;20038;-75
2023/05/21 01:05:58;;;;;;;1999.90;999.90;;;14.60;99.90;;;;;;5109443;27;20175;-75
2023/05/21 01:08:27;;;;;;;1999.90;999.90;;;14.60;99.90;;;;;;5149676;27;20403;-75
2023/05/21 01:10:54;;;;;;;1999.90;999.90;;;16.40;99.90;;;;;;5148597;27;20043;-75
2023/05/21 01:13:22;;;;;;;1999.90;999.90;;;14.60;99.90;;;;;;5150718;27;20047;-75
2023/05/21 01:15:48;;;;;;;;;;;14.50;99.90;;;;;;5148206;27;20107;-75
2023/05/21 01:18:14;;;;;;;1999.90;999.90;;;14.50;99.90;;;;;;5151873;27;19927;-75
2023/05/21 01:20:41;;;;;;;1999.90;999.90;;;14.50;99.90;;;;;;5105268;27;20061;-75
2023/05/21 01:23:07;;;;;;;1999.90;999.90;;;14.50;99.90;;;;;;5130898;27;20046;-75
2023/05/21 01:25:34;;;;;;;1999.90;999.90;;;14.50;99.90;;;;;;5128232;27;20046;-76
2023/05/21 01:28:00;;;;;;;1999.90;999.90;;;14.50;99.90;;;;;;5151480;27;20043;-76
2023/05/21 01:30:26;;;;;;;1999.90;999.90;;;14.50;99.90;;;;;;5149646;27;20046;-75
2023/05/21 01:33:19;;;;;;;1999.90;999.90;;;14.50;99.90;;;;;;5148650;27;20030;-75
2023/05/21 01:36:01;;;;;;;1999.90;999.90;;;14.50;99.90;;;;;;5129372;27;20046;-76
2023/05/21 01:38:36;;;;;;;1999.90;999.90;;;14.50;99.90;;;;;;5132847;27;20039;-75
2023/05/21 01:41:06;;;;;;;1999.90;999.90;;;14.50;99.90;;;;;;5148910;27;20053;-75
2023/05/21 01:43:35;;;;;;;1999.90;999.90;;;14.50;99.90;;;;;;5152069;27;20538;-76
2023/05/21 01:46:02;;;;;;;1999.90;999.90;;;14.40;99.90;;;;;;5132027;27;20266;-76
2023/05/21 01:48:28;;;;;;;1999.90;999.90;;;14.40;99.90;;;;;;5132770;27;20038;-75
2023/05/21 01:51:00;;;;;;;1999.90;999.90;;;14.40;99.90;;;;;;5145395;27;20053;-77
2023/05/21 01:53:26;;;;;;;1999.90;999.90;;;14.40;99.90;;;;;;5144272;27;20039;-75
2023/05/21 01:55:53;;;;;;;1999.90;999.90;;;14.30;99.90;;;;;;5151470;27;20106;-75
2023/05/21 01:58:20;;;;;;;1999.90;999.90;;;14.30;99.90;;;;;;5150865;27;20057;-76
2023/05/21 02:00:46;;;;;;;1999.90;999.90;;;14.30;99.90;;;;;;5150265;27;20039;-75
2023/05/21 02:03:13;;;;;;;1999.90;999.90;;;14.30;99.90;;;;;;5132101;27;20398;-75
2023/05/21 02:05:39;;;;;;;1999.90;999.90;;;14.20;99.90;;;;;;5151267;27;20483;-75
2023/05/21 02:08:07;;;;;;;1999.90;999.90;;;14.20;99.90;;;;;;5130165;27;20054;-76
2023/05/21 02:10:34;;;;;;;1999.90;999.90;;;14.10;99.90;;;;;;5131786;27;20050;-77
2023/05/21 02:12:59;;;;;;;1999.90;999.90;;;14.20;99.90;;;;;;5149768;27;20114;-75
2023/05/21 02:15:25;;;;;;;1999.90;999.90;;;14.20;99.90;;;;;;5150799;27;20182;-75
2023/05/21 02:17:51;;;;;;;1999.90;999.90;;;14.20;99.90;;;;;;5123366;27;20049;-74
2023/05/21 02:20:18;;;;;;;1999.90;999.90;;;14.20;1.00;;;;;;5131699;27;20122;-76
2023/05/21 02:22:46;;;;;;;1999.90;999.90;;;14.20;99.90;;;;;;5130725;27;20103;-75
2023/05/21 02:25:12;;;;;;;;;;;14.20;99.90;;;;;;5136975;27;20368;-74
2023/05/21 02:27:39;;;;;;;1999.90;999.90;;;14.30;99.90;;;;;;5136543;27;20290;-74
2023/05/21 02:30:07;;;;;;;1999.90;999.90;;;14.20;99.90;;;;;;5153466;27;20050;-76
2023/05/21 02:32:33;;;;;;;;;;;14.20;99.90;;;;;;5129302;27;20047;-75
2023/05/21 02:35:00;;;;;;;1999.90;999.90;;;14.20;99.90;;;;;;5148241;27;20328;-74
2023/05/21 02:37:26;;;;;;;1999.90;999.90;;;14.20;99.90;;;;;;5149585;27;20043;-75
2023/05/21 02:39:55;;;;;;;1999.90;999.90;;;14.20;99.90;;;;;;5151054;27;20499;-76
2023/05/21 02:42:22;;;;;;;1999.90;999.90;;;14.10;99.90;;;;;;5130385;27;20065;-75
2023/05/21 02:44:49;;;;;;;1999.90;999.90;;;14.10;99.90;;;;;;5146002;27;20469;-75
2023/05/21 02:47:15;;;;;;;1999.90;999.90;;;14.20;99.90;;;;;;5129716;27;20053;-75
2023/05/21 02:49:41;;;;;;;1999.90;999.90;;;13.10;99.90;;;;;;5149801;27;20157;-76
2023/05/21 02:52:07;;;;;;;1999.90;999.90;;;14.20;1.00;;;;;;5145318;27;20155;-75
2023/05/21 02:54:32;;;;;;;1999.90;999.90;;;14.20;1.00;;;;;;5123018;27;20446;-75
2023/05/21 02:56:58;;;;;;;1999.90;999.90;;;14.20;1.00;;;;;;5124247;27;20482;-75
2023/05/21 02:59:24;;;;;;;1999.90;999.90;;;14.20;1.00;;;;;;5128086;27;20043;-75
2023/05/21 03:01:49;;;;;;;1999.90;999.90;;;14.20;1.00;;;;;;5126309;27;20049;-75
2023/05/21 03:04:20;;;;;;;1999.90;999.90;;;14.20;1.00;;;;;;5122149;27;20043;-75
2023/05/21 03:06:47;;;;;;;1999.90;999.90;;;14.20;1.00;;;;;;5124833;27;20038;-75
2023/05/21 03:09:13;;;;;;;1999.90;999.90;;;14.10;1.00;;;;;;5122789;27;20135;-75
2023/05/21 03:11:38;;;;;;;1999.90;999.90;;;14.20;1.00;;;;;;5125240;27;20047;-76
2023/05/21 03:14:05;;;;;;;1999.90;999.90;;;14.10;1.00;;;;;;5125108;27;20065;-75
2023/05/21 03:16:33;;;;;;;1999.90;999.90;;;14.20;1.00;;;;;;5124057;27;20039;-75
2023/05/21 03:18:59;;;;;;;1999.90;999.90;;;14.20;1.00;;;;;;5127339;27;20047;-75
2023/05/21 03:21:28;;;;;;;1999.90;999.90;;;14.10;1.00;;;;;;5125613;27;20067;-75
2023/05/21 03:23:57;;;;;;;1999.90;999.90;;;14.10;1.00;;;;;;5121441;27;20135;-75
2023/05/21 03:26:26;;;;;;;1999.90;999.90;;;14.10;1.00;;;;;;5125653;27;20047;-75
2023/05/21 03:28:52;;;;;;;1999.90;999.90;;;14.10;1.00;;;;;;5128829;27;20122;-76
2023/05/21 03:31:18;;;;;;;1999.90;999.90;;;14.10;1.00;;;;;;5124679;27;20085;-75
2023/05/21 03:33:44;;;;;;;1999.90;999.90;;;14.10;1.00;;;;;;5124199;27;20707;-74
2023/05/21 03:36:10;;;;;;;1999.90;999.90;;;14.10;1.00;;;;;;5123230;27;20043;-75
2023/05/21 03:38:35;;;;;;;1999.90;999.90;;;14.10;1.00;;;;;;5124525;27;20050;-75
2023/05/21 03:41:01;;;;;;;1999.90;999.90;;;14.10;1.00;;;;;;5124336;27;20065;-77
2023/05/21 03:43:27;;;;;;;1999.90;999.90;;;14.10;1.00;;;;;;5118673;27;20055;-75
2023/05/21 03:45:53;;;;;;;1999.90;999.90;;;14.10;1.00;;;;;;5125918;27;20047;-75
2023/05/21 03:48:19;;;;;;;1999.90;999.90;;;14.10;1.00;;;;;;5121260;27;20450;-75
2023/05/21 03:50:45;;;;;;;1999.90;999.90;;;14.10;1.00;;;;;;5126213;27;20035;-75
2023/05/21 03:53:11;;;;;;;1999.90;999.90;;;14.10;1.00;;;;;;5105043;27;20077;-76
2023/05/21 03:55:37;;;;;;;1999.90;999.90;;;14.00;1.00;;;;;;5128614;27;20052;-75
2023/05/21 03:58:02;;;;;;;1999.90;999.90;;;14.00;1.00;;;;;;5102762;28;20051;-75
2023/05/21 04:00:28;;;;;;;1999.90;999.90;;;14.00;1.00;;;;;;5122657;27;20079;-76
2023/05/21 04:02:54;;;;;;;1999.90;999.90;;;14.00;1.00;;;;;;5129535;27;20046;-75
2023/05/21 04:05:20;;;;;;;1999.90;999.90;;;14.00;1.00;;;;;;5108631;27;20046;-77
2023/05/21 04:07:45;;;;;;;1999.90;999.90;;;14.00;1.00;;;;;;5127572;27;20043;-76
2023/05/21 04:10:12;;;;;;;1999.90;999.90;;;14.00;1.00;;;;;;5091985;27;20463;-76
2023/05/21 04:12:38;;;;;;;1999.90;999.90;;;14.00;1.00;;;;;;5127642;27;20045;-76
2023/05/21 04:15:04;;;;;;;1999.90;999.90;;;14.00;1.00;;;;;;5105188;27;20499;-76
2023/05/21 04:17:30;;;;;;;1999.90;999.90;;;14.00;1.00;;;;;;5121078;27;20051;-76
2023/05/21 04:19:56;;;;;;;1999.90;999.90;;;14.00;1.00;;;;;;5103159;27;20055;-76
2023/05/21 04:22:22;;;;;;;1999.90;999.90;;;14.00;1.00;;;;;;5121618;27;20126;-76
2023/05/21 04:24:48;;;;;;;1999.90;999.90;;;14.00;1.00;;;;;;5126078;27;20043;-76
2023/05/21 04:27:15;;;;;;;1999.90;999.90;;;14.10;1.00;;;;;;5122243;27;20058;-76
2023/05/21 04:29:41;;;;;;;1999.90;999.90;;;14.20;1.00;;;;;;5128160;27;20043;-76
2023/05/21 04:32:07;;;;;;;1999.90;999.90;;;14.10;1.00;;;;;;5125130;27;20487;-76
2023/05/21 04:34:33;;;;;;;1999.90;999.90;;;14.20;1.00;;;;;;5125948;27;20499;-75
2023/05/21 04:37:01;;;;;;;1999.90;999.90;;;14.20;1.00;;;;;;5124145;28;20074;-76
2023/05/21 04:39:27;;;;;;;1999.90;999.90;;;14.20;1.00;;;;;;5124948;27;20080;-76
2023/05/21 04:41:55;;;;;;;1999.90;999.90;;;14.20;1.00;;;;;;5126647;28;20053;-76
2023/05/21 04:44:21;;;;;;;;;;;14.20;1.00;;;;;;5125849;28;20509;-76
2023/05/21 04:46:47;;;;;;;1999.90;999.90;;;14.20;1.00;;;;;;5123577;28;19919;-76
2023/05/21 04:49:14;;;;;;;1999.90;999.90;;;14.30;1.00;;;;;;5122478;28;20127;-76
2023/05/21 04:51:40;;;;;;;1999.90;999.90;;;14.30;1.00;;;;;;5123771;27;20407;-77
2023/05/21 04:54:06;;;;;;;1999.90;999.90;;;14.60;1.00;;;;;;5110262;28;20115;-75
2023/05/21 04:56:32;;;;;;;1999.90;999.90;;;14.40;1.00;;;;;;5127291;27;20263;-76
2023/05/21 04:58:58;;;;;;;1999.90;999.90;;;14.40;1.00;;;;;;5123263;27;20572;-75
2023/05/21 05:01:28;;;;;;;1999.90;999.90;;;14.40;1.00;;;;;;5124501;28;20035;-75
2023/05/21 05:03:54;;;;;;;1999.90;999.90;;;14.50;1.00;;;;;;5124529;28;20123;-75
2023/05/21 05:06:21;;;;;;;1999.90;999.90;;;14.50;1.00;;;;;;5126286;28;20039;-75
2023/05/21 05:08:46;;;;;;;1999.90;999.90;;;14.50;1.00;;;;;;5125987;27;20758;-74
2023/05/21 05:11:12;;;;;;;1999.90;999.90;;;14.60;1.00;;;;;;5123999;28;20043;-75
2023/05/21 05:13:42;;;;;;;1999.90;999.90;;;14.60;1.00;;;;;;5126495;28;20391;-76
2023/05/21 05:16:08;;;;;;;1999.90;999.90;;;14.60;1.00;;;;;;5127671;28;20058;-75
2023/05/21 05:18:35;;;;;;;1999.90;999.90;;;14.60;1.00;;;;;;5124550;27;20043;-75
2023/05/21 05:21:01;;;;;;;1999.90;999.90;;;14.70;1.00;;;;;;5124942;28;20047;-75
2023/05/21 05:23:26;;;;;;;1999.90;999.90;;;14.70;1.00;;;;;;5125649;27;20506;-75
2023/05/21 05:25:52;;;;;;;1999.90;999.90;;;14.80;1.00;;;;;;5122288;28;20039;-75
2023/05/21 05:28:18;;;;;;;1999.90;999.90;;;14.90;1.00;;;;;;5129740;28;20150;-75
2023/05/21 05:30:43;;;;;;;1999.90;999.90;;;14.90;1.00;;;;;;5120525;28;20050;-76
2023/05/21 05:33:10;;;;;;;1999.90;999.90;;;15.00;1.00;;;;;;5125633;27;20043;-76
2023/05/21 05:35:35;;;;;;;1999.90;999.90;;;15.00;1.00;;;;;;5126467;27;20488;-77
2023/05/21 05:38:01;;;;;;;1999.90;999.90;;;15.00;1.00;;;;;;5133588;27;20046;-76
2023/05/21 05:40:27;;;;;;;1999.90;999.90;;;15.10;1.00;;;;;;5131613;27;20097;-76
2023/05/21 05:42:52;;;;;;;1999.90;999.90;;;15.10;1.00;;;;;;5122542;27;20046;-76
2023/05/21 05:45:19;;;;;;;1999.90;999.90;;;15.20;1.00;;;;;;5126501;27;20074;-77
2023/05/21 05:47:45;;;;;;;1999.90;999.90;;;15.30;1.00;;;;;;5126062;27;20499;-75
2023/05/21 05:50:11;;;;;;;1999.90;999.90;;;15.40;99.90;;;;;;5130538;27;20068;-76
2023/05/21 05:52:37;;;;;;;1999.90;999.90;;;15.50;99.90;;;;;;5125065;27;20501;-76
2023/05/21 05:55:03;;;;;;;1999.90;999.90;;;15.50;99.90;;;;;;5145208;27;20430;-76
2023/05/21 05:57:28;;;;;;;1999.90;999.90;;;15.50;99.90;;;;;;5149722;27;20495;-76
2023/05/21 05:59:55;;;;;;;1999.90;999.90;;;15.50;99.90;;;;;;5118678;27;20050;-76
2023/05/21 06:02:20;;;;;;;1999.90;999.90;;;15.60;99.90;;;;;;5145105;27;20038;-79
2023/05/21 06:04:46;;;;;;;1999.90;999.90;;;15.60;99.90;;;;;;5152435;27;20039;-76
2023/05/21 06:07:12;;;;;;;1999.90;999.90;;;15.60;99.90;;;;;;5155994;27;20084;-76
2023/05/21 06:09:37;;;;;;;1999.90;999.90;;;15.70;99.90;;;;;;5152392;27;20046;-76
2023/05/21 06:12:05;;;;;;;1999.90;999.90;;;15.70;99.90;;;;;;5146613;27;20043;-77
2023/05/21 06:14:31;;;;;;;1999.90;999.90;;;15.70;99.90;;;;;;5151747;27;20063;-76
2023/05/21 06:16:56;;;;;;;1999.90;999.90;;;15.80;99.90;;;;;;5156385;27;20078;-76
2023/05/21 06:19:52;;;;;;;1999.90;999.90;;;15.90;99.90;;;;;;5132182;27;1266869;-77
2023/05/21 06:22:17;;;;;;;1999.90;999.90;;;16.00;99.90;;;;;;5148768;27;20129;-79
2023/05/21 06:24:43;;;;;;;1999.90;999.90;;;16.00;99.90;;;;;;5144982;27;20130;-77
2023/05/21 06:27:09;;;;;;;1999.90;999.90;;;16.10;1.00;;;;;;5135027;27;20042;-79
2023/05/21 06:29:35;;;;;;;1999.90;999.90;;;16.20;99.90;;;;;;5175411;27;20042;-76
2023/05/21 06:32:00;;;;;;;1999.90;999.90;;;16.20;99.90;;;;;;5175105;27;20057;-77
2023/05/21 06:34:27;;;;;;;1999.90;999.90;;;16.20;99.90;;;;;;5149649;27;20047;-77
2023/05/21 06:36:53;;;;;;;1999.90;999.90;;;16.30;99.90;;;;;;5149240;27;20043;-76
2023/05/21 06:39:19;;;;;;;1999.90;999.90;;;16.30;99.90;;;;;;5141036;27;20118;-79
2023/05/21 06:41:45;;;;;;;1999.90;999.90;;;16.30;99.90;;;;;;5158751;27;20049;-79
2023/05/21 06:44:11;;;;;;;1999.90;999.90;;;16.20;99.90;;;;;;5161854;27;20052;-77
2023/05/21 06:46:37;;;;;;;1999.90;999.90;;;16.30;99.90;;;;;;5126709;27;20041;-77
2023/05/21 06:49:05;;;;;;;1999.90;999.90;;;16.30;99.90;;;;;;5122282;27;20031;-76
2023/05/21 06:51:31;;;;;;;1999.90;999.90;;;16.40;99.90;;;;;;5108593;27;20466;-77
2023/05/21 06:53:57;;;;;;;1999.90;999.90;;;16.50;99.90;;;;;;5145292;27;20058;-76
2023/05/21 06:56:23;;;;;;;1999.90;999.90;;;16.60;99.90;;;;;;5147795;27;20042;-76
2023/05/21 06:58:48;;;;;;;1999.90;999.90;;;16.60;99.90;;;;;;5127197;27;20031;-76
2023/05/21 07:01:15;;;;;;;1999.90;999.90;;;16.80;99.90;;;;;;5145543;27;20037;-79
2023/05/21 07:03:40;;;;;;;1999.90;999.90;;;16.80;99.90;;;;;;5143481;27;20386;-76
2023/05/21 07:06:06;;;;;;;1999.90;999.90;;;16.90;99.90;;;;;;5165857;27;20038;-76
2023/05/21 07:08:32;;;;;;;1999.90;999.90;;;17.00;99.90;;;;;;5142525;27;20110;-76
2023/05/21 07:11:04;;;;;;;1999.90;999.90;;;17.10;99.90;;;;;;5131004;27;20138;-77
2023/05/21 07:13:29;;;;;;;1999.90;999.90;;;17.20;99.90;;;;;;5162648;27;20043;-76
2023/05/21 07:15:55;;;;;;;1999.90;999.90;;;17.30;99.90;;;;;;5142511;27;20079;-77
2023/05/21 07:18:21;;;;;;;1999.90;999.90;;;17.40;99.90;;;;;;5144433;27;20054;-77
2023/05/21 07:20:47;;;;;;;1999.90;999.90;;;17.60;99.90;;;;;;5142856;27;20191;-76
2023/05/21 07:23:14;;;;;;;1999.90;999.90;;;17.60;99.90;;;;;;5142387;27;20048;-77
2023/05/21 07:25:40;;;;;;;1999.90;999.90;;;17.70;99.90;;;;;;5142291;27;20046;-77
2023/05/21 07:28:07;;;;;;;1999.90;999.90;;;17.80;99.90;;;;;;5139827;27;20070;-77
2023/05/21 07:30:33;;;;;;;1999.90;999.90;;;17.90;99.90;;;;;;5135161;27;20187;-77
2023/05/21 07:32:59;;;;;;;1999.90;999.90;;;18.00;99.90;;;;;;5127168;27;20058;-77
2023/05/21 07:35:25;;;;;;;1999.90;999.90;;;18.20;99.90;;;;;;5147501;27;20047;-76
2023/05/21 07:37:51;;;;;;;1999.90;999.90;;;18.30;99.90;;;;;;5126582;27;20038;-79
2023/05/21 07:40:17;;;;;;;1999.90;999.90;;;18.40;99.90;;;;;;5093526;27;20055;-77
2023/05/21 07:42:42;;;;;;;1999.90;999.90;;;18.50;99.90;;;;;;5132389;27;20193;-77
2023/05/21 07:45:08;;;;;;;1999.90;999.90;;;18.60;99.90;;;;;;5124556;27;20042;-77
2023/05/21 07:47:34;;;;;;;1999.90;999.90;;;18.70;99.90;;;;;;5114062;27;20045;-77
2023/05/21 07:50:00;;;;;;;1999.90;999.90;;;18.70;99.90;;;;;;5132891;27;20046;-76
2023/05/21 07:52:25;;;;;;;1999.90;999.90;;;18.90;99.90;;;;;;5100643;27;20046;-77
2023/05/21 07:54:51;;;;;;;1999.90;999.90;;;19.00;99.90;;;;;;5127487;27;20263;-79
2023/05/21 07:57:17;;;;;;;1999.90;999.90;;;19.30;99.90;;;;;;5145643;27;20043;-78
2023/05/21 07:59:42;;;;;;;1999.90;999.90;;;19.40;99.90;;;;;;5081779;27;20455;-77
2023/05/21 08:02:08;;;;;;;1999.90;999.90;;;19.80;99.90;;;;;;5128688;27;20047;-77
2023/05/21 08:04:34;;;;;;;1999.90;999.90;;;20.10;99.90;;;;;;5145806;27;20049;-77
2023/05/21 08:07:00;;;;;;;1999.90;999.90;;;20.20;99.90;;;;;;5149661;27;20087;-77
2023/05/21 08:09:26;;;;;;;1999.90;999.90;;;20.40;99.90;;;;;;5126444;27;20089;-77
2023/05/21 08:11:52;;;;;;;1999.90;999.90;;;20.60;99.90;;;;;;5110308;27;20046;-77
2023/05/21 08:14:17;;;;;;;1999.90;999.90;;;20.70;99.90;;;;;;5131115;27;20130;-77
2023/05/21 08:16:44;;;;;;;1999.90;999.90;;;20.90;99.90;;;;;;5111756;27;20058;-77
2023/05/21 08:19:11;;;;;;;1999.90;999.90;;;21.00;99.90;;;;;;5144559;27;20082;-79
2023/05/21 08:21:37;;;;;;;1999.90;999.90;;;21.00;99.90;;;;;;5127040;27;20053;-78
2023/05/21 08:24:02;;;;;;;1999.90;999.90;;;21.00;99.90;;;;;;5148502;27;20050;-80
2023/05/21 08:26:28;;;;;;;1999.90;999.90;;;21.20;99.90;;;;;;5137715;27;20083;-78
2023/05/21 08:28:54;;;;;;;1999.90;999.90;;;21.50;99.90;;;;;;5128543;27;20055;-78
2023/05/21 08:31:20;;;;;;;1999.90;999.90;;;21.70;99.90;;;;;;5107634;27;20039;-78
2023/05/21 08:33:52;;;;;;;1999.90;999.90;;;22.10;99.90;;;;;;5148001;27;20720;-78
2023/05/21 08:36:18;;;;;;;1999.90;999.90;;;22.40;99.90;;;;;;5110446;27;20038;-78
2023/05/21 08:38:44;;;;;;;1999.90;999.90;;;22.70;99.90;;;;;;5147853;27;20038;-79
2023/05/21 08:41:11;;;;;;;1999.90;999.90;;;23.10;99.90;;;;;;5128035;27;20480;-79
2023/05/21 08:43:45;;;;;;;1999.90;999.90;;;23.40;99.90;;;;;;5124605;27;20046;-77
2023/05/21 08:46:12;;;;;;;1999.90;999.90;;;23.80;99.90;;;;;;5142407;27;20046;-77
2023/05/21 08:48:39;;;;;;;1999.90;999.90;;;24.00;99.90;;;;;;5105644;27;20042;-81
2023/05/21 08:51:05;;;;;;;1999.90;999.90;;;24.40;99.90;;;;;;5105316;27;20042;-77
2023/05/21 08:53:34;;;;;;;1999.90;999.90;;;24.80;99.90;;;;;;5111042;27;20051;-78
2023/05/21 08:56:00;;;;;;;1999.90;999.90;;;25.00;99.90;;;;;;5090218;27;20050;-77
2023/05/21 08:58:33;;;;;;;1999.90;999.90;;;24.90;99.90;;;;;;5150250;27;20095;-77
2023/05/21 09:01:00;;;;;;;1999.90;999.90;;;25.20;99.90;;;;;;5108565;27;20134;-77
2023/05/21 09:03:28;;;;;;;1999.90;999.90;;;25.30;99.90;;;;;;5153341;27;20038;-77
2023/05/21 09:05:54;;;;;;;1999.90;999.90;;;25.50;99.90;;;;;;5112436;27;20126;-78
2023/05/21 09:08:34;;;;;;;1999.90;999.90;;;25.40;99.90;;;;;;5126490;27;20482;-79
2023/05/21 09:11:02;;;;;;;1999.90;999.90;;;25.10;99.90;;;;;;5142792;27;20576;-78
2023/05/21 09:13:30;;;;;;;1999.90;999.90;;;25.10;99.90;;;;;;5128610;27;20049;-77
2023/05/21 09:15:56;;;;;;;1999.90;999.90;;;24.90;99.90;;;;;;5126434;27;20077;-77
2023/05/21 09:18:22;;;;;;;1999.90;999.90;;;24.70;99.90;;;;;;5131876;27;20111;-77
2023/05/21 09:20:48;;;;;;;1999.90;999.90;;;24.60;99.90;;;;;;5144440;27;20059;-78
2023/05/21 09:23:16;;;;;;;1999.90;999.90;;;24.10;99.90;;;;;;5133806;27;20487;-78
2023/05/21 09:25:50;;;;;;;1999.90;999.90;;;24.00;99.90;;;;;;5152374;27;20046;-80
2023/05/21 09:28:18;;;;;;;1999.90;999.90;;;23.80;99.90;;;;;;5145095;27;20118;-76
2023/05/21 09:30:44;;;;;;;1999.90;999.90;;;23.60;99.90;;;;;;5118035;27;20043;-80
2023/05/21 09:33:10;;;;;;;1999.90;999.90;;;23.70;99.90;;;;;;5128931;27;20471;-77
2023/05/21 09:35:37;;;;;;;1999.90;999.90;;;23.70;99.90;;;;;;5122197;27;20042;-77
2023/05/21 09:38:08;;;;;;;1999.90;999.90;;;23.80;99.90;;;;;;5150715;27;20545;-79
2023/05/21 09:40:34;;;;;;;1999.90;999.90;;;24.00;99.90;;;;;;5141967;27;20038;-77
2023/05/21 09:43:00;;;;;;;1999.90;999.90;;;24.00;99.90;;;;;;5115463;27;20054;-77
2023/05/21 09:45:27;;;;;;;1999.90;999.90;;;24.20;99.90;;;;;;5097777;27;20086;-78
2023/05/21 09:47:54;;;;;;;1999.90;999.90;;;24.60;99.90;;;;;;5134233;27;20488;-78
2023/05/21 09:50:21;;;;;;;1999.90;999.90;;;24.80;99.90;;;;;;5118778;27;20042;-77
2023/05/21 09:52:49;;;;;;;1999.90;999.90;;;25.40;99.90;;;;;;5134182;27;20378;-78
2023/05/21 09:55:16;;;;;;;1999.90;999.90;;;25.30;99.90;;;;;;5151655;27;20172;-78
2023/05/21 09:57:44;;;;;;;1999.90;999.90;;;25.40;99.90;;;;;;5135541;27;20069;-78
2023/05/21 10:00:16;;;;;;;1999.90;999.90;;;25.30;99.90;;;;;;5135744;27;20051;-78
2023/05/21 10:02:46;;;;;;;1999.90;999.90;;;25.80;99.90;;;;;;5133905;27;20054;-78
2023/05/21 10:05:17;;;;;;;1999.90;999.90;;;26.30;99.90;;;;;;5130470;27;20046;-78
2023/05/21 10:07:51;;;;;;;1999.90;999.90;;;26.60;99.90;;;;;;5117894;27;20133;-79
2023/05/21 10:10:19;;;;;;;1999.90;999.90;;;26.60;99.90;;;;;;5135690;27;20073;-78
2023/05/21 10:12:46;;;;;;;1999.90;999.90;;;26.60;99.90;;;;;;5118210;27;20045;-77
2023/05/21 10:15:15;;;;;;;1999.90;999.90;;;26.70;99.90;;;;;;5099868;27;20126;-77
2023/05/21 10:17:42;;;;;;;1999.90;999.90;;;26.70;99.90;;;;;;5115389;27;20050;-77
2023/05/21 10:20:11;;;;;;;1999.90;999.90;;;26.90;99.90;;;;;;5134743;27;20047;-78
2023/05/21 10:22:38;;;;;;;1999.90;999.90;;;27.30;99.90;;;;;;5136421;27;20529;-77
2023/05/21 10:25:06;;;;;;;1999.90;999.90;;;27.70;99.90;;;;;;5153282;27;20049;-77
2023/05/21 10:27:33;;;;;;;1999.90;999.90;;;28.00;99.90;;;;;;5133544;27;20113;-77
2023/05/21 10:30:00;;;;;;;1999.90;999.90;;;28.20;99.90;;;;;;5135696;27;20054;-77
2023/05/21 10:32:26;;;;;;;1999.90;999.90;;;28.30;99.90;;;;;;5153272;27;20505;-80
2023/05/21 10:34:56;;;;;;;1999.90;999.90;;;28.50;99.90;;;;;;5152610;27;20292;-80
2023/05/21 10:37:25;;;;;;;1999.90;999.90;;;28.90;99.90;;;;;;5123647;27;20042;-79
2023/05/21 10:39:51;;;;;;;1999.90;999.90;;;29.00;99.90;;;;;;5135002;27;20046;-78
2023/05/21 10:42:23;;;;;;;1999.90;999.90;;;29.40;99.90;;;;;;5152367;27;20118;-79
2023/05/21 10:45:22;;;;;;;1999.90;999.90;;;29.40;99.90;;;;;;5153955;27;20043;-79
2023/05/21 10:48:06;;;;;;;1999.90;999.90;;;29.80;99.90;;;;;;5152265;27;20050;-79
2023/05/21 10:50:40;;;;;;;1999.90;999.90;;;30.20;99.90;;;;;;5134655;27;20099;-79
2023/05/21 10:53:36;;;;;;;1999.90;999.90;;;30.20;99.90;;;;;;5132069;27;20043;-78
2023/05/21 10:56:42;;;;;;;1999.90;999.90;;;30.50;99.90;;;;;;5153376;27;20150;-78
2023/05/21 10:59:20;;;;;;;1999.90;999.90;;;30.80;99.90;;;;;;5127046;27;20055;-78
2023/05/21 11:01:51;;;;;;;1999.90;999.90;;;30.10;99.90;;;;;;5133555;27;20047;-78
2023/05/21 11:04:21;;;;;;;1999.90;999.90;;;30.90;99.90;;;;;;5150452;27;20050;-78
2023/05/21 11:06:47;;;;;;;1999.90;999.90;;;30.80;99.90;;;;;;5152257;27;20050;-78
2023/05/21 11:09:19;;;;;;;1999.90;999.90;;;30.50;99.90;;;;;;5098148;27;20046;-78
2023/05/21 11:11:50;;;;;;;1999.90;999.90;;;30.80;99.90;;;;;;5145634;27;20039;-78
2023/05/21 11:14:35;;;;;;;1999.90;999.90;;;30.90;99.90;;;;;;5132692;27;20350;-79
2023/05/21 11:17:06;;;;;;;1999.90;999.90;;;31.00;99.90;;;;;;5132027;27;20601;-79
2023/05/21 11:19:36;;;;;;;1999.90;999.90;;;30.50;99.90;;;;;;5136916;27;20090;-79
2023/05/21 11:22:25;;;;;;;1999.90;999.90;;;30.20;99.90;;;;;;5133693;27;20074;-80
2023/05/21 11:24:54;;;;;;;1999.90;999.90;;;29.80;99.90;;;;;;5137953;27;20050;-79
2023/05/21 11:27:40;;;;;;;1999.90;999.90;;;29.80;99.90;;;;;;5128320;27;20054;-79
2023/05/21 11:30:17;;;;;;;1999.90;999.90;;;29.80;99.90;;;;;;5107808;27;20125;-79
2023/05/21 11:33:21;;;;;;;1999.90;999.90;;;30.20;99.90;;;;;;5107202;27;20063;-79
2023/05/21 11:35:46;;;;;;;1999.90;999.90;;;30.50;99.90;;;;;;5031546;28;20053;-79
2023/05/21 11:38:12;;;;;;;1999.90;999.90;;;30.90;99.90;;;;;;5020027;28;20044;-78
2023/05/21 11:40:53;;;;;;;1999.90;999.90;;;31.00;99.90;;;;;;5039964;27;20487;-79
2023/05/21 11:43:22;;;;;;;1999.90;999.90;;;31.70;99.90;;;;;;5111031;27;20436;-78
2023/05/21 11:45:51;;;;;;;1999.90;999.90;;;32.60;99.90;;;;;;5089222;27;20123;-80
2023/05/21 11:48:18;;;;;;;1999.90;999.90;;;31.80;99.90;;;;;;5124066;27;20043;-79
2023/05/21 11:50:45;;;;;;;1999.90;999.90;;;32.20;99.90;;;;;;5134727;27;20049;-80
2023/05/21 11:53:11;;;;;;;1999.90;999.90;;;32.70;99.90;;;;;;5153342;27;20490;-79
2023/05/21 11:55:42;;;;;;;1999.90;999.90;;;32.80;99.90;;;;;;5150491;27;20096;-79
2023/05/21 11:58:10;;;;;;;1999.90;999.90;;;32.90;99.90;;;;;;5101274;27;20074;-79
2023/05/21 12:00:39;;;;;;;1999.90;999.90;;;33.00;99.90;;;;;;5128780;27;20130;-79
2023/05/21 12:03:11;;;;;;;1999.90;999.90;;;32.90;99.90;;;;;;5131657;27;20050;-79
2023/05/21 12:05:47;;;;;;;1999.90;999.90;;;33.10;99.90;;;;;;5127487;27;20047;-79